sensor_id;sensor_type;location;lat;lon;timestamp;P1;durP1;ratioP1;P2;durP2;ratioP2
56343;SDS011;42245;42.058;24.700;2023-04-25T00:00:47;3.53;;;2.50;;
56343;SDS011;42245;42.058;24.700;2023-04-25T00:03:12;2.42;;;2.22;;
56343;SDS011;42245;42.058;24.700;2023-04-25T00:05:38;2.42;;;1.90;;
56343;SDS011;42245;42.058;24.700;2023-04-25T00:08:04;2.47;;;2.25;;
56343;SDS011;42245;42.058;24.700;2023-04-25T00:10:30;2.22;;;1.90;;
56343;SDS011;42245;42.058;24.700;2023-04-25T00:12:55;3.53;;;1.80;;
56343;SDS011;42245;42.058;24.700;2023-04-25T00:15:20;2.63;;;1.98;;
56343;SDS011;42245;42.058;24.700;2023-04-25T00:17:46;3.00;;;2.15;;
56343;SDS011;42245;42.058;24.700;2023-04-25T00:20:12;2.60;;;1.92;;
56343;SDS011;42245;42.058;24.700;2023-04-25T00:22:37;15.98;;;8.00;;
56343;SDS011;42245;42.058;24.700;2023-04-25T00:25:06;24.52;;;11.75;;
56343;SDS011;42245;42.058;24.700;2023-04-25T00:27:32;9.35;;;5.75;;
56343;SDS011;42245;42.058;24.700;2023-04-25T00:29:57;8.45;;;5.88;;
56343;SDS011;42245;42.058;24.700;2023-04-25T00:32:22;5.65;;;3.40;;
56343;SDS011;42245;42.058;24.700;2023-04-25T00:34:48;4.22;;;2.63;;
56343;SDS011;42245;42.058;24.700;2023-04-25T00:37:13;2.33;;;1.77;;
56343;SDS011;42245;42.058;24.700;2023-04-25T00:39:38;3.55;;;1.83;;
56343;SDS011;42245;42.058;24.700;2023-04-25T00:42:04;2.03;;;1.60;;
56343;SDS011;42245;42.058;24.700;2023-04-25T00:44:30;1.80;;;1.70;;
56343;SDS011;42245;42.058;24.700;2023-04-25T00:46:57;1.65;;;1.45;;
56343;SDS011;42245;42.058;24.700;2023-04-25T00:49:22;1.67;;;1.58;;
56343;SDS011;42245;42.058;24.700;2023-04-25T00:51:47;4.00;;;1.77;;
56343;SDS011;42245;42.058;24.700;2023-04-25T00:54:13;6.85;;;1.67;;
56343;SDS011;42245;42.058;24.700;2023-04-25T00:56:39;2.28;;;1.60;;
56343;SDS011;42245;42.058;24.700;2023-04-25T00:59:04;1.77;;;1.67;;
56343;SDS011;42245;42.058;24.700;2023-04-25T01:01:30;3.08;;;1.90;;
56343;SDS011;42245;42.058;24.700;2023-04-25T01:03:56;7.05;;;1.63;;
56343;SDS011;42245;42.058;24.700;2023-04-25T01:06:24;2.58;;;1.75;;
56343;SDS011;42245;42.058;24.700;2023-04-25T01:08:49;3.90;;;2.05;;
56343;SDS011;42245;42.058;24.700;2023-04-25T01:11:16;3.45;;;2.70;;
56343;SDS011;42245;42.058;24.700;2023-04-25T01:13:41;2.25;;;1.90;;
56343;SDS011;42245;42.058;24.700;2023-04-25T01:16:06;9.40;;;6.28;;
56343;SDS011;42245;42.058;24.700;2023-04-25T01:18:32;7.32;;;4.10;;
56343;SDS011;42245;42.058;24.700;2023-04-25T01:21:02;2.95;;;2.65;;
56343;SDS011;42245;42.058;24.700;2023-04-25T01:23:33;5.50;;;4.50;;
56343;SDS011;42245;42.058;24.700;2023-04-25T01:25:59;7.57;;;4.72;;
56343;SDS011;42245;42.058;24.700;2023-04-25T01:28:25;10.32;;;8.30;;
56343;SDS011;42245;42.058;24.700;2023-04-25T01:30:50;9.93;;;5.28;;
56343;SDS011;42245;42.058;24.700;2023-04-25T01:33:16;8.07;;;5.95;;
56343;SDS011;42245;42.058;24.700;2023-04-25T01:35:42;8.10;;;7.28;;
56343;SDS011;42245;42.058;24.700;2023-04-25T01:38:07;8.85;;;5.57;;
56343;SDS011;42245;42.058;24.700;2023-04-25T01:40:33;5.80;;;4.30;;
56343;SDS011;42245;42.058;24.700;2023-04-25T01:42:59;9.85;;;5.35;;
56343;SDS011;42245;42.058;24.700;2023-04-25T01:45:24;4.97;;;4.18;;
56343;SDS011;42245;42.058;24.700;2023-04-25T01:47:50;13.45;;;8.85;;
56343;SDS011;42245;42.058;24.700;2023-04-25T01:50:19;15.27;;;10.05;;
56343;SDS011;42245;42.058;24.700;2023-04-25T01:52:45;8.52;;;6.30;;
56343;SDS011;42245;42.058;24.700;2023-04-25T01:55:10;4.88;;;3.80;;
56343;SDS011;42245;42.058;24.700;2023-04-25T01:57:36;12.77;;;7.93;;
56343;SDS011;42245;42.058;24.700;2023-04-25T02:00:03;19.35;;;12.05;;
56343;SDS011;42245;42.058;24.700;2023-04-25T02:02:29;25.63;;;15.77;;
56343;SDS011;42245;42.058;24.700;2023-04-25T02:04:55;28.25;;;17.13;;
56343;SDS011;42245;42.058;24.700;2023-04-25T02:07:21;26.55;;;15.73;;
56343;SDS011;42245;42.058;24.700;2023-04-25T02:09:46;28.70;;;17.77;;
56343;SDS011;42245;42.058;24.700;2023-04-25T02:12:11;21.77;;;13.30;;
56343;SDS011;42245;42.058;24.700;2023-04-25T02:14:37;15.77;;;9.73;;
56343;SDS011;42245;42.058;24.700;2023-04-25T02:17:02;14.70;;;8.70;;
56343;SDS011;42245;42.058;24.700;2023-04-25T02:19:28;14.80;;;9.52;;
56343;SDS011;42245;42.058;24.700;2023-04-25T02:21:53;14.00;;;8.07;;
56343;SDS011;42245;42.058;24.700;2023-04-25T02:24:19;12.43;;;8.13;;
56343;SDS011;42245;42.058;24.700;2023-04-25T02:26:44;10.88;;;7.05;;
56343;SDS011;42245;42.058;24.700;2023-04-25T02:29:11;12.95;;;7.95;;
56343;SDS011;42245;42.058;24.700;2023-04-25T02:31:37;10.98;;;6.72;;
56343;SDS011;42245;42.058;24.700;2023-04-25T02:34:02;11.77;;;7.28;;
56343;SDS011;42245;42.058;24.700;2023-04-25T02:36:27;11.07;;;7.18;;
56343;SDS011;42245;42.058;24.700;2023-04-25T02:38:55;12.32;;;5.93;;
56343;SDS011;42245;42.058;24.700;2023-04-25T02:41:20;13.25;;;7.65;;
56343;SDS011;42245;42.058;24.700;2023-04-25T02:43:46;18.75;;;9.20;;
56343;SDS011;42245;42.058;24.700;2023-04-25T02:46:11;18.77;;;10.63;;
56343;SDS011;42245;42.058;24.700;2023-04-25T02:48:36;15.05;;;8.63;;
56343;SDS011;42245;42.058;24.700;2023-04-25T02:51:02;16.80;;;10.00;;
56343;SDS011;42245;42.058;24.700;2023-04-25T02:53:27;16.80;;;9.57;;
56343;SDS011;42245;42.058;24.700;2023-04-25T02:55:53;16.83;;;9.32;;
56343;SDS011;42245;42.058;24.700;2023-04-25T02:58:18;14.57;;;8.48;;
56343;SDS011;42245;42.058;24.700;2023-04-25T03:00:44;13.18;;;7.70;;
56343;SDS011;42245;42.058;24.700;2023-04-25T03:03:10;12.68;;;7.40;;
56343;SDS011;42245;42.058;24.700;2023-04-25T03:05:35;15.65;;;8.50;;
56343;SDS011;42245;42.058;24.700;2023-04-25T03:08:01;13.45;;;8.38;;
56343;SDS011;42245;42.058;24.700;2023-04-25T03:10:26;14.27;;;7.97;;
56343;SDS011;42245;42.058;24.700;2023-04-25T03:12:51;11.25;;;7.07;;
56343;SDS011;42245;42.058;24.700;2023-04-25T03:15:17;10.88;;;6.70;;
56343;SDS011;42245;42.058;24.700;2023-04-25T03:17:43;10.60;;;6.35;;
56343;SDS011;42245;42.058;24.700;2023-04-25T03:20:09;15.93;;;7.75;;
56343;SDS011;42245;42.058;24.700;2023-04-25T03:22:35;11.93;;;7.28;;
56343;SDS011;42245;42.058;24.700;2023-04-25T03:25:01;13.43;;;8.13;;
56343;SDS011;42245;42.058;24.700;2023-04-25T03:27:26;13.27;;;8.80;;
56343;SDS011;42245;42.058;24.700;2023-04-25T03:29:51;13.90;;;9.35;;
56343;SDS011;42245;42.058;24.700;2023-04-25T03:32:17;14.95;;;9.32;;
56343;SDS011;42245;42.058;24.700;2023-04-25T03:34:42;12.88;;;9.15;;
56343;SDS011;42245;42.058;24.700;2023-04-25T03:37:07;15.55;;;9.15;;
56343;SDS011;42245;42.058;24.700;2023-04-25T03:39:33;13.05;;;8.63;;
56343;SDS011;42245;42.058;24.700;2023-04-25T03:41:58;12.25;;;8.32;;
56343;SDS011;42245;42.058;24.700;2023-04-25T03:44:23;11.98;;;8.65;;
56343;SDS011;42245;42.058;24.700;2023-04-25T03:46:49;15.75;;;8.32;;
56343;SDS011;42245;42.058;24.700;2023-04-25T03:49:15;12.82;;;9.30;;
56343;SDS011;42245;42.058;24.700;2023-04-25T03:51:41;14.43;;;9.32;;
56343;SDS011;42245;42.058;24.700;2023-04-25T03:54:06;14.15;;;9.20;;
56343;SDS011;42245;42.058;24.700;2023-04-25T03:56:32;16.10;;;9.70;;
56343;SDS011;42245;42.058;24.700;2023-04-25T03:58:58;16.35;;;10.23;;
56343;SDS011;42245;42.058;24.700;2023-04-25T04:01:23;13.88;;;9.07;;
56343;SDS011;42245;42.058;24.700;2023-04-25T04:03:48;12.13;;;9.02;;
56343;SDS011;42245;42.058;24.700;2023-04-25T04:06:14;17.75;;;9.85;;
56343;SDS011;42245;42.058;24.700;2023-04-25T04:08:41;13.88;;;9.15;;
56343;SDS011;42245;42.058;24.700;2023-04-25T04:11:06;15.38;;;8.45;;
56343;SDS011;42245;42.058;24.700;2023-04-25T04:13:31;11.45;;;8.10;;
56343;SDS011;42245;42.058;24.700;2023-04-25T04:15:57;16.15;;;8.85;;
56343;SDS011;42245;42.058;24.700;2023-04-25T04:18:23;14.52;;;8.15;;
56343;SDS011;42245;42.058;24.700;2023-04-25T04:20:48;11.35;;;7.57;;
56343;SDS011;42245;42.058;24.700;2023-04-25T04:23:14;11.05;;;7.75;;
56343;SDS011;42245;42.058;24.700;2023-04-25T04:25:39;10.65;;;6.82;;
56343;SDS011;42245;42.058;24.700;2023-04-25T04:28:05;10.90;;;7.05;;
56343;SDS011;42245;42.058;24.700;2023-04-25T04:30:32;9.80;;;7.05;;
56343;SDS011;42245;42.058;24.700;2023-04-25T04:32:58;8.05;;;6.20;;
56343;SDS011;42245;42.058;24.700;2023-04-25T04:35:23;11.38;;;6.43;;
56343;SDS011;42245;42.058;24.700;2023-04-25T04:37:50;10.95;;;7.63;;
56343;SDS011;42245;42.058;24.700;2023-04-25T04:40:16;9.48;;;7.00;;
56343;SDS011;42245;42.058;24.700;2023-04-25T04:42:43;10.18;;;6.60;;
56343;SDS011;42245;42.058;24.700;2023-04-25T04:45:09;7.93;;;6.25;;
56343;SDS011;42245;42.058;24.700;2023-04-25T04:47:35;9.60;;;6.65;;
56343;SDS011;42245;42.058;24.700;2023-04-25T04:50:01;8.95;;;5.63;;
56343;SDS011;42245;42.058;24.700;2023-04-25T04:52:28;8.75;;;6.30;;
56343;SDS011;42245;42.058;24.700;2023-04-25T04:54:53;9.63;;;6.10;;
56343;SDS011;42245;42.058;24.700;2023-04-25T04:57:18;7.78;;;6.00;;
56343;SDS011;42245;42.058;24.700;2023-04-25T04:59:44;8.15;;;6.10;;
56343;SDS011;42245;42.058;24.700;2023-04-25T05:02:09;9.60;;;5.63;;
56343;SDS011;42245;42.058;24.700;2023-04-25T05:04:35;6.93;;;5.40;;
56343;SDS011;42245;42.058;24.700;2023-04-25T05:07:00;9.70;;;6.10;;
56343;SDS011;42245;42.058;24.700;2023-04-25T05:09:26;7.60;;;5.80;;
56343;SDS011;42245;42.058;24.700;2023-04-25T05:11:51;8.48;;;6.05;;
56343;SDS011;42245;42.058;24.700;2023-04-25T05:14:17;7.13;;;5.90;;
56343;SDS011;42245;42.058;24.700;2023-04-25T05:16:43;9.65;;;5.75;;
56343;SDS011;42245;42.058;24.700;2023-04-25T05:19:08;9.45;;;6.63;;
56343;SDS011;42245;42.058;24.700;2023-04-25T05:21:34;7.10;;;5.20;;
56343;SDS011;42245;42.058;24.700;2023-04-25T05:23:59;6.97;;;6.07;;
56343;SDS011;42245;42.058;24.700;2023-04-25T05:26:25;11.18;;;5.32;;
56343;SDS011;42245;42.058;24.700;2023-04-25T05:28:51;6.88;;;5.65;;
56343;SDS011;42245;42.058;24.700;2023-04-25T05:31:16;8.93;;;6.00;;
56343;SDS011;42245;42.058;24.700;2023-04-25T05:33:41;7.30;;;5.60;;
56343;SDS011;42245;42.058;24.700;2023-04-25T05:36:07;7.97;;;5.60;;
56343;SDS011;42245;42.058;24.700;2023-04-25T05:38:33;14.23;;;6.00;;
56343;SDS011;42245;42.058;24.700;2023-04-25T05:40:58;6.20;;;5.57;;
56343;SDS011;42245;42.058;24.700;2023-04-25T05:43:23;6.82;;;5.80;;
56343;SDS011;42245;42.058;24.700;2023-04-25T05:45:49;6.78;;;5.57;;
56343;SDS011;42245;42.058;24.700;2023-04-25T05:48:15;7.85;;;5.60;;
56343;SDS011;42245;42.058;24.700;2023-04-25T05:50:40;9.73;;;6.10;;
56343;SDS011;42245;42.058;24.700;2023-04-25T05:53:06;5.88;;;5.15;;
56343;SDS011;42245;42.058;24.700;2023-04-25T05:55:31;5.57;;;4.45;;
56343;SDS011;42245;42.058;24.700;2023-04-25T05:57:56;7.30;;;4.78;;
56343;SDS011;42245;42.058;24.700;2023-04-25T06:00:22;8.43;;;5.45;;
56343;SDS011;42245;42.058;24.700;2023-04-25T06:02:47;7.80;;;5.22;;
56343;SDS011;42245;42.058;24.700;2023-04-25T06:05:13;7.65;;;5.80;;
56343;SDS011;42245;42.058;24.700;2023-04-25T06:07:38;11.32;;;6.72;;
56343;SDS011;42245;42.058;24.700;2023-04-25T06:10:04;7.25;;;5.78;;
56343;SDS011;42245;42.058;24.700;2023-04-25T06:12:31;8.77;;;5.88;;
56343;SDS011;42245;42.058;24.700;2023-04-25T06:14:58;9.52;;;5.68;;
56343;SDS011;42245;42.058;24.700;2023-04-25T06:17:23;8.55;;;5.35;;
56343;SDS011;42245;42.058;24.700;2023-04-25T06:19:48;9.57;;;5.80;;
56343;SDS011;42245;42.058;24.700;2023-04-25T06:22:14;11.38;;;5.03;;
56343;SDS011;42245;42.058;24.700;2023-04-25T06:24:39;7.07;;;4.40;;
56343;SDS011;42245;42.058;24.700;2023-04-25T06:27:05;9.40;;;4.88;;
56343;SDS011;42245;42.058;24.700;2023-04-25T06:29:30;7.53;;;4.82;;
56343;SDS011;42245;42.058;24.700;2023-04-25T06:31:55;7.53;;;5.20;;
56343;SDS011;42245;42.058;24.700;2023-04-25T06:34:22;9.95;;;4.70;;
56343;SDS011;42245;42.058;24.700;2023-04-25T06:36:47;4.95;;;4.28;;
56343;SDS011;42245;42.058;24.700;2023-04-25T06:39:12;6.10;;;4.90;;
56343;SDS011;42245;42.058;24.700;2023-04-25T06:41:38;6.20;;;4.88;;
56343;SDS011;42245;42.058;24.700;2023-04-25T06:44:03;6.45;;;4.50;;
56343;SDS011;42245;42.058;24.700;2023-04-25T06:46:29;5.88;;;4.97;;
56343;SDS011;42245;42.058;24.700;2023-04-25T06:48:54;7.13;;;5.22;;
56343;SDS011;42245;42.058;24.700;2023-04-25T06:51:20;6.63;;;5.60;;
56343;SDS011;42245;42.058;24.700;2023-04-25T06:53:45;6.13;;;5.15;;
56343;SDS011;42245;42.058;24.700;2023-04-25T06:56:10;6.70;;;5.30;;
56343;SDS011;42245;42.058;24.700;2023-04-25T06:58:36;7.63;;;5.57;;
56343;SDS011;42245;42.058;24.700;2023-04-25T07:01:01;7.85;;;5.32;;
56343;SDS011;42245;42.058;24.700;2023-04-25T07:03:27;5.95;;;5.10;;
56343;SDS011;42245;42.058;24.700;2023-04-25T07:05:52;7.40;;;4.90;;
56343;SDS011;42245;42.058;24.700;2023-04-25T07:08:17;7.20;;;5.20;;
56343;SDS011;42245;42.058;24.700;2023-04-25T07:10:43;8.80;;;5.82;;
56343;SDS011;42245;42.058;24.700;2023-04-25T07:13:08;11.98;;;5.57;;
56343;SDS011;42245;42.058;24.700;2023-04-25T07:15:33;6.03;;;4.75;;
56343;SDS011;42245;42.058;24.700;2023-04-25T07:17:59;8.15;;;4.90;;
56343;SDS011;42245;42.058;24.700;2023-04-25T07:20:24;6.40;;;5.32;;
56343;SDS011;42245;42.058;24.700;2023-04-25T07:22:50;11.27;;;5.38;;
56343;SDS011;42245;42.058;24.700;2023-04-25T07:25:16;11.70;;;4.80;;
56343;SDS011;42245;42.058;24.700;2023-04-25T07:27:41;6.63;;;4.97;;
56343;SDS011;42245;42.058;24.700;2023-04-25T07:30:07;6.88;;;4.72;;
56343;SDS011;42245;42.058;24.700;2023-04-25T07:32:33;5.97;;;4.07;;
56343;SDS011;42245;42.058;24.700;2023-04-25T07:34:58;5.97;;;3.90;;
56343;SDS011;42245;42.058;24.700;2023-04-25T07:37:24;6.50;;;4.47;;
56343;SDS011;42245;42.058;24.700;2023-04-25T07:39:51;7.38;;;4.97;;
56343;SDS011;42245;42.058;24.700;2023-04-25T07:42:16;6.85;;;4.57;;
56343;SDS011;42245;42.058;24.700;2023-04-25T07:44:41;4.97;;;4.47;;
56343;SDS011;42245;42.058;24.700;2023-04-25T07:47:07;7.50;;;4.88;;
56343;SDS011;42245;42.058;24.700;2023-04-25T07:49:33;7.32;;;4.72;;
56343;SDS011;42245;42.058;24.700;2023-04-25T07:52:00;4.43;;;4.00;;
56343;SDS011;42245;42.058;24.700;2023-04-25T07:54:26;6.15;;;3.90;;
56343;SDS011;42245;42.058;24.700;2023-04-25T07:56:51;5.53;;;3.90;;
56343;SDS011;42245;42.058;24.700;2023-04-25T07:59:16;5.88;;;4.25;;
56343;SDS011;42245;42.058;24.700;2023-04-25T08:01:42;6.95;;;4.40;;
56343;SDS011;42245;42.058;24.700;2023-04-25T08:04:07;5.22;;;4.10;;
56343;SDS011;42245;42.058;24.700;2023-04-25T08:06:32;6.55;;;4.28;;
56343;SDS011;42245;42.058;24.700;2023-04-25T08:08:58;4.70;;;4.25;;
56343;SDS011;42245;42.058;24.700;2023-04-25T08:11:23;6.10;;;4.35;;
56343;SDS011;42245;42.058;24.700;2023-04-25T08:13:48;6.32;;;3.90;;
56343;SDS011;42245;42.058;24.700;2023-04-25T08:16:14;8.65;;;4.65;;
56343;SDS011;42245;42.058;24.700;2023-04-25T08:18:39;5.80;;;4.90;;
56343;SDS011;42245;42.058;24.700;2023-04-25T08:21:05;5.82;;;4.60;;
56343;SDS011;42245;42.058;24.700;2023-04-25T08:23:31;6.88;;;4.35;;
56343;SDS011;42245;42.058;24.700;2023-04-25T08:25:57;7.25;;;4.40;;
56343;SDS011;42245;42.058;24.700;2023-04-25T08:28:22;9.38;;;4.88;;
56343;SDS011;42245;42.058;24.700;2023-04-25T08:30:47;9.82;;;5.22;;
56343;SDS011;42245;42.058;24.700;2023-04-25T08:33:13;9.00;;;4.75;;
56343;SDS011;42245;42.058;24.700;2023-04-25T08:35:38;5.45;;;4.63;;
56343;SDS011;42245;42.058;24.700;2023-04-25T08:38:04;8.18;;;4.90;;
56343;SDS011;42245;42.058;24.700;2023-04-25T08:40:29;5.20;;;4.47;;
56343;SDS011;42245;42.058;24.700;2023-04-25T08:42:57;5.78;;;4.97;;
56343;SDS011;42245;42.058;24.700;2023-04-25T08:45:23;6.22;;;4.45;;
56343;SDS011;42245;42.058;24.700;2023-04-25T08:47:50;9.38;;;5.18;;
56343;SDS011;42245;42.058;24.700;2023-04-25T08:50:17;9.00;;;5.10;;
56343;SDS011;42245;42.058;24.700;2023-04-25T08:52:46;7.00;;;5.65;;
56343;SDS011;42245;42.058;24.700;2023-04-25T08:55:13;8.27;;;5.63;;
56343;SDS011;42245;42.058;24.700;2023-04-25T08:57:40;8.35;;;4.85;;
56343;SDS011;42245;42.058;24.700;2023-04-25T09:00:07;8.80;;;5.35;;
56343;SDS011;42245;42.058;24.700;2023-04-25T09:02:34;7.20;;;4.72;;
56343;SDS011;42245;42.058;24.700;2023-04-25T09:05:00;6.22;;;5.40;;
56343;SDS011;42245;42.058;24.700;2023-04-25T09:07:29;6.70;;;5.18;;
56343;SDS011;42245;42.058;24.700;2023-04-25T09:09:54;7.10;;;5.43;;
56343;SDS011;42245;42.058;24.700;2023-04-25T09:12:20;8.50;;;6.95;;
56343;SDS011;42245;42.058;24.700;2023-04-25T09:17:34;6.20;;;5.30;;
56343;SDS011;42245;42.058;24.700;2023-04-25T09:20:09;7.68;;;5.18;;
56343;SDS011;42245;42.058;24.700;2023-04-25T09:22:37;6.57;;;4.63;;
56343;SDS011;42245;42.058;24.700;2023-04-25T09:25:04;5.28;;;4.78;;
56343;SDS011;42245;42.058;24.700;2023-04-25T09:27:33;8.15;;;5.13;;
56343;SDS011;42245;42.058;24.700;2023-04-25T09:29:59;5.13;;;4.60;;
56343;SDS011;42245;42.058;24.700;2023-04-25T09:32:25;7.30;;;5.05;;
56343;SDS011;42245;42.058;24.700;2023-04-25T09:34:51;6.18;;;4.80;;
56343;SDS011;42245;42.058;24.700;2023-04-25T09:39:47;6.32;;;4.93;;
56343;SDS011;42245;42.058;24.700;2023-04-25T09:42:17;8.52;;;5.20;;
56343;SDS011;42245;42.058;24.700;2023-04-25T09:44:44;4.93;;;4.40;;
56343;SDS011;42245;42.058;24.700;2023-04-25T09:47:10;8.77;;;4.80;;
56343;SDS011;42245;42.058;24.700;2023-04-25T09:49:39;6.50;;;4.50;;
56343;SDS011;42245;42.058;24.700;2023-04-25T09:52:06;6.85;;;5.30;;
56343;SDS011;42245;42.058;24.700;2023-04-25T09:54:32;7.32;;;4.85;;
56343;SDS011;42245;42.058;24.700;2023-04-25T09:56:57;6.57;;;5.00;;
56343;SDS011;42245;42.058;24.700;2023-04-25T09:59:28;7.60;;;4.40;;
56343;SDS011;42245;42.058;24.700;2023-04-25T10:01:56;5.53;;;4.38;;
56343;SDS011;42245;42.058;24.700;2023-04-25T10:04:25;9.55;;;7.03;;
56343;SDS011;42245;42.058;24.700;2023-04-25T10:06:51;6.82;;;5.20;;
56343;SDS011;42245;42.058;24.700;2023-04-25T10:09:21;6.95;;;4.32;;
56343;SDS011;42245;42.058;24.700;2023-04-25T10:11:50;4.57;;;3.80;;
56343;SDS011;42245;42.058;24.700;2023-04-25T10:14:16;4.88;;;3.95;;
56343;SDS011;42245;42.058;24.700;2023-04-25T10:16:41;5.75;;;4.00;;
56343;SDS011;42245;42.058;24.700;2023-04-25T10:19:08;4.47;;;3.53;;
56343;SDS011;42245;42.058;24.700;2023-04-25T10:21:34;6.90;;;3.75;;
56343;SDS011;42245;42.058;24.700;2023-04-25T10:24:04;3.67;;;2.90;;
56343;SDS011;42245;42.058;24.700;2023-04-25T10:26:30;4.40;;;3.28;;
56343;SDS011;42245;42.058;24.700;2023-04-25T10:28:56;4.80;;;3.47;;
56343;SDS011;42245;42.058;24.700;2023-04-25T10:31:30;4.20;;;3.42;;
56343;SDS011;42245;42.058;24.700;2023-04-25T10:33:56;7.65;;;3.25;;
56343;SDS011;42245;42.058;24.700;2023-04-25T10:36:22;3.97;;;3.05;;
56343;SDS011;42245;42.058;24.700;2023-04-25T10:38:49;4.85;;;3.03;;
56343;SDS011;42245;42.058;24.700;2023-04-25T10:41:17;5.10;;;3.00;;
56343;SDS011;42245;42.058;24.700;2023-04-25T10:43:43;7.35;;;3.10;;
56343;SDS011;42245;42.058;24.700;2023-04-25T10:48:55;3.13;;;2.83;;
56343;SDS011;42245;42.058;24.700;2023-04-25T10:51:24;3.85;;;2.97;;
56343;SDS011;42245;42.058;24.700;2023-04-25T10:53:57;3.67;;;2.78;;
56343;SDS011;42245;42.058;24.700;2023-04-25T10:56:26;4.75;;;2.72;;
56343;SDS011;42245;42.058;24.700;2023-04-25T10:59:28;3.10;;;2.60;;
56343;SDS011;42245;42.058;24.700;2023-04-25T11:01:51;6.15;;;2.75;;
56343;SDS011;42245;42.058;24.700;2023-04-25T11:09:39;4.35;;;2.70;;
56343;SDS011;42245;42.058;24.700;2023-04-25T11:12:07;6.53;;;2.70;;
56343;SDS011;42245;42.058;24.700;2023-04-25T11:14:33;4.45;;;2.72;;
56343;SDS011;42245;42.058;24.700;2023-04-25T11:16:59;3.88;;;2.60;;
56343;SDS011;42245;42.058;24.700;2023-04-25T11:19:25;6.93;;;2.78;;
56343;SDS011;42245;42.058;24.700;2023-04-25T11:21:55;4.38;;;2.50;;
56343;SDS011;42245;42.058;24.700;2023-04-25T11:24:25;2.60;;;2.40;;
56343;SDS011;42245;42.058;24.700;2023-04-25T11:26:54;8.27;;;2.80;;
56343;SDS011;42245;42.058;24.700;2023-04-25T11:29:22;4.88;;;2.20;;
56343;SDS011;42245;42.058;24.700;2023-04-25T11:31:48;2.90;;;2.50;;
56343;SDS011;42245;42.058;24.700;2023-04-25T11:34:17;4.50;;;2.05;;
56343;SDS011;42245;42.058;24.700;2023-04-25T11:36:43;2.75;;;2.10;;
56343;SDS011;42245;42.058;24.700;2023-04-25T11:39:10;2.78;;;2.45;;
56343;SDS011;42245;42.058;24.700;2023-04-25T11:41:36;2.90;;;2.65;;
56343;SDS011;42245;42.058;24.700;2023-04-25T11:44:02;3.08;;;2.78;;
56343;SDS011;42245;42.058;24.700;2023-04-25T11:46:28;3.42;;;2.60;;
56343;SDS011;42245;42.058;24.700;2023-04-25T11:48:53;3.03;;;2.70;;
56343;SDS011;42245;42.058;24.700;2023-04-25T11:51:20;2.90;;;2.60;;
56343;SDS011;42245;42.058;24.700;2023-04-25T11:53:46;3.22;;;2.88;;
56343;SDS011;42245;42.058;24.700;2023-04-25T11:56:11;3.65;;;3.10;;
56343;SDS011;42245;42.058;24.700;2023-04-25T12:01:29;3.67;;;2.65;;
56343;SDS011;42245;42.058;24.700;2023-04-25T12:03:57;3.33;;;2.63;;
56343;SDS011;42245;42.058;24.700;2023-04-25T12:06:29;4.22;;;2.55;;
56343;SDS011;42245;42.058;24.700;2023-04-25T12:11:32;3.20;;;2.45;;
56343;SDS011;42245;42.058;24.700;2023-04-25T12:14:05;2.30;;;2.08;;
56343;SDS011;42245;42.058;24.700;2023-04-25T12:16:44;3.00;;;2.70;;
56343;SDS011;42245;42.058;24.700;2023-04-25T12:19:13;3.22;;;2.45;;
56343;SDS011;42245;42.058;24.700;2023-04-25T12:21:39;2.83;;;2.58;;
56343;SDS011;42245;42.058;24.700;2023-04-25T12:24:24;3.33;;;2.60;;
56343;SDS011;42245;42.058;24.700;2023-04-25T12:27:01;3.53;;;2.85;;
56343;SDS011;42245;42.058;24.700;2023-04-25T12:29:29;3.17;;;2.80;;
56343;SDS011;42245;42.058;24.700;2023-04-25T12:31:55;6.68;;;2.90;;
56343;SDS011;42245;42.058;24.700;2023-04-25T12:34:21;5.85;;;2.72;;
56343;SDS011;42245;42.058;24.700;2023-04-25T12:36:47;3.88;;;2.70;;
56343;SDS011;42245;42.058;24.700;2023-04-25T12:39:20;4.43;;;2.90;;
56343;SDS011;42245;42.058;24.700;2023-04-25T12:41:52;3.03;;;2.70;;
56343;SDS011;42245;42.058;24.700;2023-04-25T12:44:21;3.75;;;2.70;;
56343;SDS011;42245;42.058;24.700;2023-04-25T12:46:46;9.80;;;3.00;;
56343;SDS011;42245;42.058;24.700;2023-04-25T12:49:12;4.20;;;2.88;;
56343;SDS011;42245;42.058;24.700;2023-04-25T12:51:38;3.45;;;2.50;;
56343;SDS011;42245;42.058;24.700;2023-04-25T12:54:04;5.15;;;2.60;;
56343;SDS011;42245;42.058;24.700;2023-04-25T12:56:32;4.75;;;2.70;;
56343;SDS011;42245;42.058;24.700;2023-04-25T12:58:57;3.97;;;2.90;;
56343;SDS011;42245;42.058;24.700;2023-04-25T13:01:23;4.30;;;3.03;;
56343;SDS011;42245;42.058;24.700;2023-04-25T13:03:49;3.05;;;2.75;;
56343;SDS011;42245;42.058;24.700;2023-04-25T13:06:14;4.18;;;3.25;;
56343;SDS011;42245;42.058;24.700;2023-04-25T13:08:41;4.40;;;3.13;;
56343;SDS011;42245;42.058;24.700;2023-04-25T13:11:06;6.95;;;3.00;;
56343;SDS011;42245;42.058;24.700;2023-04-25T13:13:32;3.85;;;2.97;;
56343;SDS011;42245;42.058;24.700;2023-04-25T13:15:59;5.20;;;3.28;;
56343;SDS011;42245;42.058;24.700;2023-04-25T13:18:25;6.03;;;2.28;;
56343;SDS011;42245;42.058;24.700;2023-04-25T13:20:54;3.08;;;2.17;;
56343;SDS011;42245;42.058;24.700;2023-04-25T13:23:20;4.38;;;2.15;;
56343;SDS011;42245;42.058;24.700;2023-04-25T13:25:45;2.53;;;1.90;;
56343;SDS011;42245;42.058;24.700;2023-04-25T13:28:11;2.83;;;2.40;;
56343;SDS011;42245;42.058;24.700;2023-04-25T13:30:37;3.88;;;2.30;;
56343;SDS011;42245;42.058;24.700;2023-04-25T13:33:02;3.58;;;2.45;;
56343;SDS011;42245;42.058;24.700;2023-04-25T13:35:28;6.32;;;1.80;;
56343;SDS011;42245;42.058;24.700;2023-04-25T13:37:55;2.50;;;1.70;;
56343;SDS011;42245;42.058;24.700;2023-04-25T13:40:21;3.33;;;1.65;;
56343;SDS011;42245;42.058;24.700;2023-04-25T13:42:46;2.00;;;1.75;;
56343;SDS011;42245;42.058;24.700;2023-04-25T13:45:12;2.35;;;1.83;;
56343;SDS011;42245;42.058;24.700;2023-04-25T13:47:37;2.05;;;1.80;;
56343;SDS011;42245;42.058;24.700;2023-04-25T13:50:05;1.92;;;1.80;;
56343;SDS011;42245;42.058;24.700;2023-04-25T13:52:32;3.90;;;2.00;;
56343;SDS011;42245;42.058;24.700;2023-04-25T13:54:58;3.85;;;2.00;;
56343;SDS011;42245;42.058;24.700;2023-04-25T13:57:23;3.50;;;1.90;;
56343;SDS011;42245;42.058;24.700;2023-04-25T13:59:50;2.53;;;2.10;;
56343;SDS011;42245;42.058;24.700;2023-04-25T14:02:16;2.45;;;2.25;;
56343;SDS011;42245;42.058;24.700;2023-04-25T14:04:41;2.22;;;1.98;;
56343;SDS011;42245;42.058;24.700;2023-04-25T14:07:07;2.50;;;1.92;;
56343;SDS011;42245;42.058;24.700;2023-04-25T14:09:33;4.25;;;2.00;;
56343;SDS011;42245;42.058;24.700;2023-04-25T14:11:59;2.20;;;2.00;;
56343;SDS011;42245;42.058;24.700;2023-04-25T14:14:24;2.75;;;1.80;;
56343;SDS011;42245;42.058;24.700;2023-04-25T14:16:50;2.40;;;1.60;;
56343;SDS011;42245;42.058;24.700;2023-04-25T14:19:17;2.13;;;1.77;;
56343;SDS011;42245;42.058;24.700;2023-04-25T14:21:42;2.55;;;1.80;;
56343;SDS011;42245;42.058;24.700;2023-04-25T14:24:08;5.22;;;1.50;;
56343;SDS011;42245;42.058;24.700;2023-04-25T14:26:35;3.25;;;1.52;;
56343;SDS011;42245;42.058;24.700;2023-04-25T14:29:01;2.17;;;1.55;;
56343;SDS011;42245;42.058;24.700;2023-04-25T14:31:27;2.33;;;1.52;;
56343;SDS011;42245;42.058;24.700;2023-04-25T14:33:53;2.42;;;1.70;;
56343;SDS011;42245;42.058;24.700;2023-04-25T14:36:18;1.85;;;1.60;;
56343;SDS011;42245;42.058;24.700;2023-04-25T14:38:43;1.92;;;1.40;;
56343;SDS011;42245;42.058;24.700;2023-04-25T14:41:09;2.03;;;1.67;;
56343;SDS011;42245;42.058;24.700;2023-04-25T14:43:35;1.98;;;1.60;;